sensor_id;sensor_type;location;lat;lon;timestamp;pressure;altitude;pressure_sealevel;temperature;humidity
46392;BME280;32098;49.448;7.904;2023-04-08T00:00:16;98527.94;;;5.63;81.21
46392;BME280;32098;49.448;7.904;2023-04-08T00:02:42;98529.16;;;5.60;81.07
46392;BME280;32098;49.448;7.904;2023-04-08T00:05:09;98529.34;;;5.59;81.26
46392;BME280;32098;49.448;7.904;2023-04-08T00:07:35;98527.03;;;5.49;81.75
46392;BME280;32098;49.448;7.904;2023-04-08T00:10:02;98529.66;;;5.49;81.21
46392;BME280;32098;49.448;7.904;2023-04-08T00:12:29;98533.69;;;5.45;82.15
46392;BME280;32098;49.448;7.904;2023-04-08T00:14:56;98530.16;;;5.38;82.16
46392;BME280;32098;49.448;7.904;2023-04-08T00:17:23;98533.38;;;5.33;82.19
46392;BME280;32098;49.448;7.904;2023-04-08T00:19:50;98531.56;;;5.34;82.55
46392;BME280;32098;49.448;7.904;2023-04-08T00:22:17;98530.53;;;5.35;82.38
46392;BME280;32098;49.448;7.904;2023-04-08T00:24:43;98530.28;;;5.51;82.03
46392;BME280;32098;49.448;7.904;2023-04-08T00:27:10;98530.28;;;5.51;80.99
46392;BME280;32098;49.448;7.904;2023-04-08T00:29:36;98529.84;;;5.48;81.23
46392;BME280;32098;49.448;7.904;2023-04-08T00:32:03;98522.91;;;5.47;81.72
46392;BME280;32098;49.448;7.904;2023-04-08T00:34:30;98530.78;;;5.40;80.92
46392;BME280;32098;49.448;7.904;2023-04-08T00:36:58;98526.25;;;5.34;81.89
46392;BME280;32098;49.448;7.904;2023-04-08T00:39:25;98519.50;;;5.31;82.12
46392;BME280;32098;49.448;7.904;2023-04-08T00:41:52;98524.41;;;5.34;82.58
46392;BME280;32098;49.448;7.904;2023-04-08T00:44:19;98530.91;;;5.32;82.57
46392;BME280;32098;49.448;7.904;2023-04-08T00:46:45;98531.16;;;5.37;82.37
46392;BME280;32098;49.448;7.904;2023-04-08T00:49:12;98526.88;;;5.36;82.55
46392;BME280;32098;49.448;7.904;2023-04-08T00:51:39;98526.88;;;5.36;81.95
46392;BME280;32098;49.448;7.904;2023-04-08T00:54:06;98529.59;;;5.43;81.73
46392;BME280;32098;49.448;7.904;2023-04-08T00:56:34;98534.75;;;5.51;82.22
46392;BME280;32098;49.448;7.904;2023-04-08T00:59:01;98533.50;;;5.47;81.36
46392;BME280;32098;49.448;7.904;2023-04-08T01:01:35;98536.34;;;5.45;82.10
46392;BME280;32098;49.448;7.904;2023-04-08T01:04:28;98527.31;;;5.39;81.87
46392;BME280;32098;49.448;7.904;2023-04-08T01:07:16;98529.50;;;5.57;81.53
46392;BME280;32098;49.448;7.904;2023-04-08T01:09:53;98531.03;;;5.45;81.70
46392;BME280;32098;49.448;7.904;2023-04-08T01:12:25;98518.16;;;5.42;82.20
46392;BME280;32098;49.448;7.904;2023-04-08T01:15:06;98527.69;;;5.58;81.64
46392;BME280;32098;49.448;7.904;2023-04-08T01:17:34;98531.78;;;5.60;81.08
46392;BME280;32098;49.448;7.904;2023-04-08T01:24:35;98532.38;;;5.56;81.93
46392;BME280;32098;49.448;7.904;2023-04-08T01:27:05;98527.06;;;5.56;82.09
46392;BME280;32098;49.448;7.904;2023-04-08T01:29:33;98525.16;;;5.50;82.54
46392;BME280;32098;49.448;7.904;2023-04-08T01:32:02;98526.19;;;5.49;82.86
46392;BME280;32098;49.448;7.904;2023-04-08T01:34:30;98522.91;;;5.47;82.98
46392;BME280;32098;49.448;7.904;2023-04-08T01:36:58;98520.66;;;5.44;83.26
46392;BME280;32098;49.448;7.904;2023-04-08T01:39:25;98529.09;;;5.54;82.82
46392;BME280;32098;49.448;7.904;2023-04-08T01:41:53;98530.91;;;5.53;82.92
46392;BME280;32098;49.448;7.904;2023-04-08T01:44:23;98529.41;;;5.44;83.94
46392;BME280;32098;49.448;7.904;2023-04-08T01:46:52;98524.53;;;5.48;83.85
46392;BME280;32098;49.448;7.904;2023-04-08T01:49:21;98526.56;;;5.46;83.74
46392;BME280;32098;49.448;7.904;2023-04-08T01:51:50;98523.66;;;5.41;83.29
46392;BME280;32098;49.448;7.904;2023-04-08T01:54:17;98525.94;;;5.44;83.75
46392;BME280;32098;49.448;7.904;2023-04-08T01:56:44;98523.28;;;5.44;83.96
46392;BME280;32098;49.448;7.904;2023-04-08T01:59:13;98528.22;;;5.47;83.40
46392;BME280;32098;49.448;7.904;2023-04-08T02:01:42;98526.19;;;5.49;84.36
46392;BME280;32098;49.448;7.904;2023-04-08T02:04:11;98513.03;;;5.34;83.89
46392;BME280;32098;49.448;7.904;2023-04-08T02:06:38;98533.06;;;5.43;84.11
46392;BME280;32098;49.448;7.904;2023-04-08T02:09:05;98521.38;;;5.37;84.28
46392;BME280;32098;49.448;7.904;2023-04-08T02:11:34;98527.81;;;5.50;84.70
46392;BME280;32098;49.448;7.904;2023-04-08T02:14:01;98526.00;;;5.50;84.48
46392;BME280;32098;49.448;7.904;2023-04-08T02:16:52;98536.88;;;5.62;83.95
46392;BME280;32098;49.448;7.904;2023-04-08T02:19:31;98532.88;;;5.66;83.46
46392;BME280;32098;49.448;7.904;2023-04-08T02:22:04;98521.00;;;5.62;82.42
46392;BME280;32098;49.448;7.904;2023-04-08T02:24:33;98531.28;;;5.71;82.87
46392;BME280;32098;49.448;7.904;2023-04-08T02:27:02;98535.81;;;5.77;82.79
46392;BME280;32098;49.448;7.904;2023-04-08T02:29:31;98537.84;;;5.75;82.86
46392;BME280;32098;49.448;7.904;2023-04-08T02:32:00;98528.22;;;5.74;82.66
46392;BME280;32098;49.448;7.904;2023-04-08T02:34:28;98534.97;;;5.77;82.31
46392;BME280;32098;49.448;7.904;2023-04-08T02:36:55;98539.28;;;5.78;82.03
46392;BME280;32098;49.448;7.904;2023-04-08T02:39:29;98537.88;;;5.82;82.42
46392;BME280;32098;49.448;7.904;2023-04-08T02:41:56;98534.03;;;5.84;81.68
46392;BME280;32098;49.448;7.904;2023-04-08T02:44:23;98532.19;;;5.85;82.10
46392;BME280;32098;49.448;7.904;2023-04-08T02:46:50;98538.91;;;5.81;81.64
46392;BME280;32098;49.448;7.904;2023-04-08T02:49:16;98534.94;;;5.70;81.72
46392;BME280;32098;49.448;7.904;2023-04-08T02:51:43;98536.66;;;5.57;83.19
46392;BME280;32098;49.448;7.904;2023-04-08T02:54:09;98524.91;;;5.45;83.34
46392;BME280;32098;49.448;7.904;2023-04-08T02:56:36;98545.09;;;5.46;83.45
46392;BME280;32098;49.448;7.904;2023-04-08T02:59:02;98539.19;;;5.44;83.73
46392;BME280;32098;49.448;7.904;2023-04-08T03:01:29;98532.88;;;5.45;83.55
46392;BME280;32098;49.448;7.904;2023-04-08T03:03:56;98513.06;;;5.41;83.42
46392;BME280;32098;49.448;7.904;2023-04-08T03:06:23;98542.84;;;5.64;83.00
46392;BME280;32098;49.448;7.904;2023-04-08T03:08:49;98536.72;;;5.63;83.30
46392;BME280;32098;49.448;7.904;2023-04-08T03:11:16;98524.47;;;5.62;82.68
46392;BME280;32098;49.448;7.904;2023-04-08T03:13:43;98540.03;;;5.72;82.39
46392;BME280;32098;49.448;7.904;2023-04-08T03:16:09;98540.69;;;5.74;81.86
46392;BME280;32098;49.448;7.904;2023-04-08T03:18:36;98526.53;;;5.67;82.40
46392;BME280;32098;49.448;7.904;2023-04-08T03:21:03;98534.03;;;5.57;83.12
46392;BME280;32098;49.448;7.904;2023-04-08T03:23:29;98532.69;;;5.46;82.79
46392;BME280;32098;49.448;7.904;2023-04-08T03:25:56;98541.63;;;5.45;83.14
46392;BME280;32098;49.448;7.904;2023-04-08T03:28:22;98535.25;;;5.39;83.33
46392;BME280;32098;49.448;7.904;2023-04-08T03:30:49;98542.47;;;5.46;83.24
46392;BME280;32098;49.448;7.904;2023-04-08T03:33:16;98545.47;;;5.43;83.47
46392;BME280;32098;49.448;7.904;2023-04-08T03:35:42;98555.00;;;5.37;83.30
46392;BME280;32098;49.448;7.904;2023-04-08T03:38:09;98556.84;;;5.36;83.28
46392;BME280;32098;49.448;7.904;2023-04-08T03:40:35;98546.63;;;5.33;83.74
46392;BME280;32098;49.448;7.904;2023-04-08T03:43:02;98547.25;;;5.35;83.81
46392;BME280;32098;49.448;7.904;2023-04-08T03:45:31;98548.13;;;5.43;83.51
46392;BME280;32098;49.448;7.904;2023-04-08T03:47:57;98546.88;;;5.38;83.32
46392;BME280;32098;49.448;7.904;2023-04-08T03:50:24;98546.38;;;5.28;83.80
46392;BME280;32098;49.448;7.904;2023-04-08T03:52:50;98541.94;;;5.35;83.78
46392;BME280;32098;49.448;7.904;2023-04-08T03:55:17;98545.06;;;5.39;83.73
46392;BME280;32098;49.448;7.904;2023-04-08T03:57:43;98508.91;;;5.31;83.04
46392;BME280;32098;49.448;7.904;2023-04-08T04:00:11;98539.69;;;5.54;82.33
46392;BME280;32098;49.448;7.904;2023-04-08T04:02:38;98539.31;;;5.57;82.61
46392;BME280;32098;49.448;7.904;2023-04-08T04:05:05;98538.13;;;5.59;82.76
46392;BME280;32098;49.448;7.904;2023-04-08T04:07:32;98533.03;;;5.64;82.55
46392;BME280;32098;49.448;7.904;2023-04-08T04:09:58;98545.00;;;5.54;82.30
46392;BME280;32098;49.448;7.904;2023-04-08T04:12:25;98539.06;;;5.52;82.47
46392;BME280;32098;49.448;7.904;2023-04-08T04:14:51;98544.72;;;5.49;82.55
46392;BME280;32098;49.448;7.904;2023-04-08T04:17:18;98547.56;;;5.47;82.84
46392;BME280;32098;49.448;7.904;2023-04-08T04:19:44;98544.47;;;5.44;83.06
46392;BME280;32098;49.448;7.904;2023-04-08T04:22:11;98551.09;;;5.33;83.65
46392;BME280;32098;49.448;7.904;2023-04-08T04:24:37;98549.44;;;5.32;84.35
46392;BME280;32098;49.448;7.904;2023-04-08T04:27:04;98554.56;;;5.33;83.71
46392;BME280;32098;49.448;7.904;2023-04-08T04:29:30;98555.63;;;5.24;84.05
46392;BME280;32098;49.448;7.904;2023-04-08T04:31:57;98552.19;;;5.24;84.42
46392;BME280;32098;49.448;7.904;2023-04-08T04:34:23;98562.31;;;5.20;84.30
46392;BME280;32098;49.448;7.904;2023-04-08T04:36:50;98555.94;;;5.15;84.67
46392;BME280;32098;49.448;7.904;2023-04-08T04:39:16;98561.59;;;5.12;84.39
46392;BME280;32098;49.448;7.904;2023-04-08T04:41:43;98564.44;;;5.10;84.76
46392;BME280;32098;49.448;7.904;2023-04-08T04:44:10;98565.97;;;5.19;84.90
46392;BME280;32098;49.448;7.904;2023-04-08T04:46:36;98576.56;;;5.19;84.80
46392;BME280;32098;49.448;7.904;2023-04-08T04:49:03;98570.22;;;5.14;84.92
46392;BME280;32098;49.448;7.904;2023-04-08T04:51:32;98556.25;;;5.05;84.32
46392;BME280;32098;49.448;7.904;2023-04-08T04:53:59;98570.84;;;5.16;84.33
46392;BME280;32098;49.448;7.904;2023-04-08T04:56:26;98582.13;;;5.24;83.90
46392;BME280;32098;49.448;7.904;2023-04-08T04:58:53;98578.13;;;5.28;83.94
46392;BME280;32098;49.448;7.904;2023-04-08T05:01:19;98575.00;;;5.25;83.22
46392;BME280;32098;49.448;7.904;2023-04-08T05:03:46;98581.06;;;5.19;84.59
46392;BME280;32098;49.448;7.904;2023-04-08T05:06:12;98585.97;;;5.22;84.34
46392;BME280;32098;49.448;7.904;2023-04-08T05:08:39;98583.50;;;5.20;84.75
46392;BME280;32098;49.448;7.904;2023-04-08T05:11:09;98589.72;;;5.27;84.70
46392;BME280;32098;49.448;7.904;2023-04-08T05:13:36;98583.88;;;5.32;84.02
46392;BME280;32098;49.448;7.904;2023-04-08T05:16:02;98587.59;;;5.37;83.88
46392;BME280;32098;49.448;7.904;2023-04-08T05:18:29;98591.44;;;5.35;83.71
46392;BME280;32098;49.448;7.904;2023-04-08T05:20:56;98588.53;;;5.30;83.75
46392;BME280;32098;49.448;7.904;2023-04-08T05:23:22;98592.38;;;5.27;84.19
46392;BME280;32098;49.448;7.904;2023-04-08T05:25:48;98587.16;;;5.34;84.35
46392;BME280;32098;49.448;7.904;2023-04-08T05:28:15;98592.00;;;5.30;83.85
46392;BME280;32098;49.448;7.904;2023-04-08T05:30:42;98596.69;;;5.28;84.61
46392;BME280;32098;49.448;7.904;2023-04-08T05:33:08;98590.81;;;5.33;84.81
46392;BME280;32098;49.448;7.904;2023-04-08T05:35:35;98598.56;;;5.34;84.38
46392;BME280;32098;49.448;7.904;2023-04-08T05:38:01;98603.94;;;5.41;84.30
46392;BME280;32098;49.448;7.904;2023-04-08T05:40:28;98600.66;;;5.39;84.20
46392;BME280;32098;49.448;7.904;2023-04-08T05:42:54;98604.78;;;5.42;83.42
46392;BME280;32098;49.448;7.904;2023-04-08T05:45:21;98604.38;;;5.45;83.99
46392;BME280;32098;49.448;7.904;2023-04-08T05:47:47;98607.78;;;5.38;84.61
46392;BME280;32098;49.448;7.904;2023-04-08T05:50:14;98611.00;;;5.34;84.25
46392;BME280;32098;49.448;7.904;2023-04-08T05:52:42;98602.84;;;5.35;84.66
46392;BME280;32098;49.448;7.904;2023-04-08T05:55:12;98608.97;;;5.36;85.23
46392;BME280;32098;49.448;7.904;2023-04-08T05:57:40;98612.06;;;5.39;85.36
46392;BME280;32098;49.448;7.904;2023-04-08T06:00:08;98603.94;;;5.41;85.13
46392;BME280;32098;49.448;7.904;2023-04-08T06:02:35;98605.75;;;5.41;85.24
46392;BME280;32098;49.448;7.904;2023-04-08T06:05:03;98615.13;;;5.58;85.10
46392;BME280;32098;49.448;7.904;2023-04-08T06:07:31;98615.56;;;5.61;85.01
46392;BME280;32098;49.448;7.904;2023-04-08T06:09:57;98626.03;;;5.69;84.70
46392;BME280;32098;49.448;7.904;2023-04-08T06:12:24;98630.38;;;5.77;83.65
46392;BME280;32098;49.448;7.904;2023-04-08T06:14:54;98637.84;;;5.88;83.86
46392;BME280;32098;49.448;7.904;2023-04-08T06:17:21;98628.31;;;5.93;83.57
46392;BME280;32098;49.448;7.904;2023-04-08T06:19:48;98631.41;;;5.97;84.03
46392;BME280;32098;49.448;7.904;2023-04-08T06:22:15;98625.72;;;6.00;82.87
46392;BME280;32098;49.448;7.904;2023-04-08T06:24:42;98630.66;;;6.03;83.40
46392;BME280;32098;49.448;7.904;2023-04-08T06:27:08;98628.63;;;6.05;83.33
46392;BME280;32098;49.448;7.904;2023-04-08T06:29:35;98632.13;;;6.33;88.38
46392;BME280;32098;49.448;7.904;2023-04-08T06:32:01;98637.72;;;7.07;93.60
46392;BME280;32098;49.448;7.904;2023-04-08T06:34:28;98634.50;;;7.72;90.19
46392;BME280;32098;49.448;7.904;2023-04-08T06:36:54;98630.88;;;8.32;84.36
46392;BME280;32098;49.448;7.904;2023-04-08T06:39:21;98626.34;;;8.78;80.06
46392;BME280;32098;49.448;7.904;2023-04-08T06:41:48;98631.50;;;9.31;77.15
46392;BME280;32098;49.448;7.904;2023-04-08T06:44:31;98641.13;;;9.38;71.75
46392;BME280;32098;49.448;7.904;2023-04-08T06:46:57;98633.56;;;9.29;70.72
46392;BME280;32098;49.448;7.904;2023-04-08T06:49:24;98631.75;;;9.29;70.55
46392;BME280;32098;49.448;7.904;2023-04-08T06:51:52;98639.88;;;8.90;69.37
46392;BME280;32098;49.448;7.904;2023-04-08T06:54:18;98640.28;;;8.74;70.48
46392;BME280;32098;49.448;7.904;2023-04-08T06:56:45;98649.31;;;8.46;70.37
46392;BME280;32098;49.448;7.904;2023-04-08T06:59:12;98640.47;;;8.20;70.97
46392;BME280;32098;49.448;7.904;2023-04-08T07:01:38;98650.91;;;8.08;72.46
46392;BME280;32098;49.448;7.904;2023-04-08T07:04:05;98651.31;;;7.99;72.72
46392;BME280;32098;49.448;7.904;2023-04-08T07:06:32;98646.75;;;7.66;72.85
46392;BME280;32098;49.448;7.904;2023-04-08T07:08:58;98659.72;;;7.35;75.21
46392;BME280;32098;49.448;7.904;2023-04-08T07:11:25;98655.00;;;7.37;75.14
46392;BME280;32098;49.448;7.904;2023-04-08T07:13:51;98658.94;;;7.41;75.62
46392;BME280;32098;49.448;7.904;2023-04-08T07:16:18;98658.25;;;7.26;74.02
46392;BME280;32098;49.448;7.904;2023-04-08T07:18:44;98660.16;;;7.45;74.00
46392;BME280;32098;49.448;7.904;2023-04-08T07:21:12;98663.66;;;7.52;72.70
46392;BME280;32098;49.448;7.904;2023-04-08T07:23:39;98663.03;;;7.50;72.58
46392;BME280;32098;49.448;7.904;2023-04-08T07:26:05;98665.66;;;7.37;72.63
46392;BME280;32098;49.448;7.904;2023-04-08T07:28:32;98653.56;;;7.35;71.57
46392;BME280;32098;49.448;7.904;2023-04-08T07:31:12;98649.53;;;7.39;71.59
46392;BME280;32098;49.448;7.904;2023-04-08T07:33:39;98669.19;;;7.57;70.55
46392;BME280;32098;49.448;7.904;2023-04-08T07:36:08;98660.69;;;7.88;70.95
46392;BME280;32098;49.448;7.904;2023-04-08T07:38:35;98665.06;;;8.28;68.79
46392;BME280;32098;49.448;7.904;2023-04-08T07:41:01;98673.47;;;8.32;67.26
46392;BME280;32098;49.448;7.904;2023-04-08T07:43:30;98675.53;;;8.69;67.78
46392;BME280;32098;49.448;7.904;2023-04-08T07:46:03;98672.63;;;8.97;65.54
46392;BME280;32098;49.448;7.904;2023-04-08T07:48:31;98666.19;;;9.17;64.08
46392;BME280;32098;49.448;7.904;2023-04-08T07:50:57;98670.94;;;9.15;64.98
46392;BME280;32098;49.448;7.904;2023-04-08T07:53:36;98673.28;;;9.50;63.04
46392;BME280;32098;49.448;7.904;2023-04-08T07:56:09;98672.22;;;9.57;63.08
46392;BME280;32098;49.448;7.904;2023-04-08T07:58:36;98673.50;;;9.42;63.41
46392;BME280;32098;49.448;7.904;2023-04-08T08:01:03;98678.38;;;8.87;64.76
46392;BME280;32098;49.448;7.904;2023-04-08T08:03:29;98681.63;;;8.63;65.92
46392;BME280;32098;49.448;7.904;2023-04-08T08:05:59;98685.94;;;8.38;67.21
46392;BME280;32098;49.448;7.904;2023-04-08T08:08:26;98686.38;;;8.54;67.58
46392;BME280;32098;49.448;7.904;2023-04-08T08:10:52;98690.88;;;8.67;64.77
46392;BME280;32098;49.448;7.904;2023-04-08T08:13:19;98684.09;;;8.51;65.20
46392;BME280;32098;49.448;7.904;2023-04-08T08:15:51;98691.44;;;8.23;65.56
46392;BME280;32098;49.448;7.904;2023-04-08T08:18:18;98690.84;;;8.15;66.22
46392;BME280;32098;49.448;7.904;2023-04-08T08:20:44;98693.72;;;8.46;65.06
46392;BME280;32098;49.448;7.904;2023-04-08T08:23:11;98694.34;;;8.61;63.83
46392;BME280;32098;49.448;7.904;2023-04-08T08:25:37;98694.28;;;9.27;65.69
46392;BME280;32098;49.448;7.904;2023-04-08T08:28:04;98690.72;;;9.46;62.27
46392;BME280;32098;49.448;7.904;2023-04-08T08:30:30;98694.25;;;9.40;62.14
46392;BME280;32098;49.448;7.904;2023-04-08T08:32:59;98694.28;;;9.27;63.68
46392;BME280;32098;49.448;7.904;2023-04-08T08:35:26;98695.78;;;9.60;62.20
46392;BME280;32098;49.448;7.904;2023-04-08T08:37:52;98694.34;;;10.09;60.95
46392;BME280;32098;49.448;7.904;2023-04-08T08:40:19;98701.16;;;10.61;58.25
46392;BME280;32098;49.448;7.904;2023-04-08T08:42:52;98707.78;;;10.27;57.53
46392;BME280;32098;49.448;7.904;2023-04-08T08:45:19;98704.28;;;10.58;58.16
46392;BME280;32098;49.448;7.904;2023-04-08T08:47:46;98701.31;;;10.66;57.99
46392;BME280;32098;49.448;7.904;2023-04-08T08:50:16;98700.19;;;11.77;55.74
46392;BME280;32098;49.448;7.904;2023-04-08T08:52:50;98684.50;;;12.63;51.73
46392;BME280;32098;49.448;7.904;2023-04-08T08:55:18;98700.63;;;11.74;52.47
46392;BME280;32098;49.448;7.904;2023-04-08T08:58:05;98704.53;;;11.90;54.50
46392;BME280;32098;49.448;7.904;2023-04-08T09:00:40;98698.72;;;12.64;51.53
46392;BME280;32098;49.448;7.904;2023-04-08T09:03:19;98704.91;;;12.53;51.00
46392;BME280;32098;49.448;7.904;2023-04-08T09:05:51;98692.97;;;12.07;50.14
46392;BME280;32098;49.448;7.904;2023-04-08T09:08:28;98701.16;;;11.64;49.22
46392;BME280;32098;49.448;7.904;2023-04-08T09:11:17;98700.03;;;11.18;50.82
46392;BME280;32098;49.448;7.904;2023-04-08T09:13:44;98698.63;;;10.90;54.18
46392;BME280;32098;49.448;7.904;2023-04-08T09:16:12;98704.25;;;11.07;51.51
46392;BME280;32098;49.448;7.904;2023-04-08T09:18:40;98701.00;;;10.98;52.19
46392;BME280;32098;49.448;7.904;2023-04-08T09:21:10;98703.00;;;10.85;53.67
46392;BME280;32098;49.448;7.904;2023-04-08T09:23:45;98696.50;;;10.99;51.22
46392;BME280;32098;49.448;7.904;2023-04-08T09:28:43;98706.66;;;10.03;51.47
46392;BME280;32098;49.448;7.904;2023-04-08T09:31:30;98698.13;;;9.88;53.27
46392;BME280;32098;49.448;7.904;2023-04-08T09:33:58;98697.00;;;9.64;53.67
46392;BME280;32098;49.448;7.904;2023-04-08T09:36:25;98694.97;;;9.60;53.66
46392;BME280;32098;49.448;7.904;2023-04-08T09:38:54;98701.13;;;9.60;53.01
46392;BME280;32098;49.448;7.904;2023-04-08T09:41:21;98698.13;;;9.88;54.77
46392;BME280;32098;49.448;7.904;2023-04-08T09:43:51;98699.69;;;9.64;54.54
46392;BME280;32098;49.448;7.904;2023-04-08T09:46:29;98709.81;;;9.36;55.30
46392;BME280;32098;49.448;7.904;2023-04-08T09:49:05;98705.69;;;9.40;56.69
46392;BME280;32098;49.448;7.904;2023-04-08T09:51:44;98712.66;;;9.48;56.18
46392;BME280;32098;49.448;7.904;2023-04-08T09:54:18;98714.53;;;9.92;55.15
46392;BME280;32098;49.448;7.904;2023-04-08T09:56:50;98706.28;;;9.93;54.74
46392;BME280;32098;49.448;7.904;2023-04-08T09:59:20;98710.50;;;9.76;55.75
46392;BME280;32098;49.448;7.904;2023-04-08T10:01:53;98716.53;;;9.96;55.95
46392;BME280;32098;49.448;7.904;2023-04-08T10:04:22;98716.50;;;10.09;56.65
46392;BME280;32098;49.448;7.904;2023-04-08T10:06:56;98708.22;;;9.79;55.40
46392;BME280;32098;49.448;7.904;2023-04-08T10:09:23;98724.88;;;9.04;58.69
46392;BME280;32098;49.448;7.904;2023-04-08T10:11:49;98714.94;;;9.44;58.60
46392;BME280;32098;49.448;7.904;2023-04-08T10:14:16;98708.72;;;10.01;58.16
46392;BME280;32098;49.448;7.904;2023-04-08T10:16:43;98715.09;;;9.56;59.38
46392;BME280;32098;49.448;7.904;2023-04-08T10:19:42;98716.19;;;9.29;60.93
46392;BME280;32098;49.448;7.904;2023-04-08T10:22:45;98719.50;;;9.17;61.15
46392;BME280;32098;49.448;7.904;2023-04-08T10:27:43;98723.03;;;8.79;63.40
46392;BME280;32098;49.448;7.904;2023-04-08T10:32:57;98721.41;;;8.84;63.13
46392;BME280;32098;49.448;7.904;2023-04-08T10:37:56;98721.38;;;8.65;60.49
46392;BME280;32098;49.448;7.904;2023-04-08T10:40:24;98719.31;;;8.34;54.41
46392;BME280;32098;49.448;7.904;2023-04-08T10:42:54;98734.88;;;8.37;53.64
46392;BME280;32098;49.448;7.904;2023-04-08T10:45:21;98730.38;;;8.44;54.92
46392;BME280;32098;49.448;7.904;2023-04-08T10:47:48;98733.44;;;8.34;54.40
46392;BME280;32098;49.448;7.904;2023-04-08T10:50:17;98723.81;;;8.53;54.38
46392;BME280;32098;49.448;7.904;2023-04-08T10:52:51;98734.53;;;8.79;53.62
46392;BME280;32098;49.448;7.904;2023-04-08T10:55:25;98738.81;;;8.93;53.63
46392;BME280;32098;49.448;7.904;2023-04-08T10:57:54;98731.25;;;8.77;54.85
46392;BME280;32098;49.448;7.904;2023-04-08T11:00:37;98738.19;;;9.04;56.08
46392;BME280;32098;49.448;7.904;2023-04-08T11:03:09;98727.50;;;8.65;56.46
46392;BME280;32098;49.448;7.904;2023-04-08T11:05:39;98742.69;;;8.65;58.26
46392;BME280;32098;49.448;7.904;2023-04-08T11:08:06;98732.66;;;8.67;58.27
46392;BME280;32098;49.448;7.904;2023-04-08T11:10:37;98725.47;;;8.54;57.27
46392;BME280;32098;49.448;7.904;2023-04-08T11:13:07;98734.06;;;8.56;57.54
46392;BME280;32098;49.448;7.904;2023-04-08T11:15:35;98724.28;;;8.76;58.06
46392;BME280;32098;49.448;7.904;2023-04-08T11:18:03;98715.63;;;9.00;55.63
46392;BME280;32098;49.448;7.904;2023-04-08T11:20:31;98723.63;;;9.00;55.70
46392;BME280;32098;49.448;7.904;2023-04-08T11:23:01;98728.75;;;8.95;55.64
46392;BME280;32098;49.448;7.904;2023-04-08T11:25:28;98723.00;;;9.11;57.29
46392;BME280;32098;49.448;7.904;2023-04-08T11:27:55;98719.09;;;9.07;57.59
46392;BME280;32098;49.448;7.904;2023-04-08T11:30:22;98701.09;;;9.03;58.00
46392;BME280;32098;49.448;7.904;2023-04-08T11:32:49;98716.59;;;9.26;57.53
46392;BME280;32098;49.448;7.904;2023-04-08T11:35:17;98716.84;;;9.24;57.25
46392;BME280;32098;49.448;7.904;2023-04-08T11:37:44;98717.72;;;8.92;57.19
46392;BME280;32098;49.448;7.904;2023-04-08T11:40:19;98725.06;;;8.96;56.77
46392;BME280;32098;49.448;7.904;2023-04-08T11:42:46;98714.03;;;8.73;57.93
46392;BME280;32098;49.448;7.904;2023-04-08T11:45:14;98725.06;;;8.70;58.23
46392;BME280;32098;49.448;7.904;2023-04-08T11:47:42;98711.75;;;8.64;57.97
46392;BME280;32098;49.448;7.904;2023-04-08T11:50:09;98709.50;;;8.80;59.34
46392;BME280;32098;49.448;7.904;2023-04-08T11:52:47;98720.53;;;9.10;57.63
46392;BME280;32098;49.448;7.904;2023-04-08T11:55:30;98714.00;;;8.93;55.58
46392;BME280;32098;49.448;7.904;2023-04-08T11:58:02;98723.44;;;9.02;57.20
46392;BME280;32098;49.448;7.904;2023-04-08T12:00:29;98707.47;;;8.69;57.28
46392;BME280;32098;49.448;7.904;2023-04-08T12:02:56;98709.69;;;8.98;57.39
46392;BME280;32098;49.448;7.904;2023-04-08T12:05:23;98721.75;;;9.20;56.18
46392;BME280;32098;49.448;7.904;2023-04-08T12:07:49;98720.94;;;9.13;58.77
46392;BME280;32098;49.448;7.904;2023-04-08T12:10:16;98726.88;;;9.15;56.91
46392;BME280;32098;49.448;7.904;2023-04-08T12:12:42;98724.25;;;9.02;55.68
46392;BME280;32098;49.448;7.904;2023-04-08T12:15:09;98730.97;;;9.18;55.20
46392;BME280;32098;49.448;7.904;2023-04-08T12:17:36;98713.44;;;9.61;55.12
46392;BME280;32098;49.448;7.904;2023-04-08T12:20:05;98706.84;;;9.64;55.15
46392;BME280;32098;49.448;7.904;2023-04-08T12:22:32;98709.06;;;9.80;54.86
46392;BME280;32098;49.448;7.904;2023-04-08T12:24:58;98710.03;;;9.85;55.92
46392;BME280;32098;49.448;7.904;2023-04-08T12:27:25;98709.56;;;9.57;55.65
46392;BME280;32098;49.448;7.904;2023-04-08T12:29:51;98715.50;;;9.59;55.96
46392;BME280;32098;49.448;7.904;2023-04-08T12:32:18;98710.91;;;9.73;55.96
46392;BME280;32098;49.448;7.904;2023-04-08T12:34:46;98707.81;;;9.76;53.35
46392;BME280;32098;49.448;7.904;2023-04-08T12:37:12;98708.00;;;9.81;54.10
46392;BME280;32098;49.448;7.904;2023-04-08T12:39:39;98709.84;;;9.87;54.08
46392;BME280;32098;49.448;7.904;2023-04-08T12:42:05;98711.63;;;9.93;55.37
46392;BME280;32098;49.448;7.904;2023-04-08T12:44:32;98707.09;;;9.56;56.00
46392;BME280;32098;49.448;7.904;2023-04-08T12:46:58;98712.69;;;9.41;56.42
46392;BME280;32098;49.448;7.904;2023-04-08T12:49:25;98710.38;;;9.51;56.94
46392;BME280;32098;49.448;7.904;2023-04-08T12:51:53;98713.53;;;9.29;56.50
46392;BME280;32098;49.448;7.904;2023-04-08T12:54:20;98721.19;;;8.86;56.12
46392;BME280;32098;49.448;7.904;2023-04-08T12:56:47;98700.91;;;8.58;56.44
46392;BME280;32098;49.448;7.904;2023-04-08T12:59:14;98718.50;;;8.66;56.57
46392;BME280;32098;49.448;7.904;2023-04-08T13:01:41;98723.84;;;8.66;55.90
46392;BME280;32098;49.448;7.904;2023-04-08T13:04:07;98715.63;;;8.61;56.27
46392;BME280;32098;49.448;7.904;2023-04-08T13:06:34;98736.91;;;8.48;56.67
46392;BME280;32098;49.448;7.904;2023-04-08T13:09:01;98724.22;;;8.50;56.25
46392;BME280;32098;49.448;7.904;2023-04-08T13:11:27;98730.41;;;8.57;56.54
46392;BME280;32098;49.448;7.904;2023-04-08T13:13:54;98725.06;;;8.57;55.90
46392;BME280;32098;49.448;7.904;2023-04-08T13:16:20;98723.06;;;8.72;57.17
46392;BME280;32098;49.448;7.904;2023-04-08T13:18:47;98712.34;;;9.11;55.20
46392;BME280;32098;49.448;7.904;2023-04-08T13:21:14;98720.03;;;9.52;53.96
46392;BME280;32098;49.448;7.904;2023-04-08T13:23:40;98718.16;;;9.59;53.89
46392;BME280;32098;49.448;7.904;2023-04-08T13:26:07;98721.31;;;9.37;52.60
46392;BME280;32098;49.448;7.904;2023-04-08T13:28:34;98717.47;;;9.13;52.43
46392;BME280;32098;49.448;7.904;2023-04-08T13:31:09;98711.44;;;9.44;50.23